Valle Azzurra — ICEG — position and weather

sailwx.info

Track history (hours):
 
Tides and Currents Weather Stations Pressure Air Temp Water Temp Dewpoint Dewpoint Depression Visibility Wind Speed Wind Dir Waves Ship Positions

Valle Azzurra

Last reported at 2016-Jun-23 10:19 UTC. Time now 2016-Jun-25 03:37 UTC.
Position N 25°46' W 079°33'.

Length 183 m; draft 8.2 m.

Type: Ship. MMSI: 247226600.

Date/timePositionNaut miles runAvg speedWind from/ knotsBaromVisibWave heightAir tempDewpointWater temp
2016-Jun-23 10:19N 25°46' W 079°33'810.4
2016-Jun-23 09:33N 25°54' W 079°32'1110.5
2016-Jun-23 08:33N 26°04' W 079°31'1110.8
2016-Jun-23 07:34N 26°15' W 079°29'  
2016-Jun-20 19:32N 36°49' W 075°48'1313.3
2016-Jun-20 18:33N 36°58' W 076°00'1313.0
2016-Jun-20 17:34N 37°09' W 076°09'4312.9
2016-Jun-20 14:12N 37°52' W 076°10'914.5
2016-Jun-20 13:33N 38°01' W 076°12'1514.9
2016-Jun-20 12:34N 38°16' W 076°17'1515.0
2016-Jun-20 11:34N 38°30' W 076°24'1414.0
2016-Jun-20 10:34N 38°44' W 076°26'1413.5
2016-Jun-20 09:33N 38°57' W 076°23'1212.3
2016-Jun-20 08:33N 39°09' W 076°25'8 7.5
2016-Jun-20 07:33N 39°14' W 076°32'0 0.0
2016-Jun-20 06:33N 39°14' W 076°32'0 0.0
2016-Jun-20 05:33N 39°14' W 076°32'0 0.0
2016-Jun-20 04:27N 39°14' W 076°32'0 0.0
2016-Jun-20 03:33N 39°14' W 076°32'1 0.7
2016-Jun-20 02:33N 39°13' W 076°32'2 0.1
2016-Jun-19 06:21N 39°13' W 076°35'0 0.0
2016-Jun-18 11:18N 39°13' W 076°35'0 0.0
2016-Jun-18 10:06N 39°13' W 076°35'0 0.0
2016-Jun-18 09:33N 39°13' W 076°35'0 0.0
2016-Jun-18 07:33N 39°13' W 076°35'0 0.0
2016-Jun-18 06:24N 39°13' W 076°35'0 0.0
2016-Jun-16 15:33N 39°13' W 076°35'0 0.0
2016-Jun-16 14:33N 39°13' W 076°35'0 0.0
2016-Jun-16 13:33N 39°13' W 076°35'0 0.0
2016-Jun-16 12:33N 39°13' W 076°35'3 2.8
2016-Jun-16 11:33N 39°13' W 076°31'9 8.7
2016-Jun-16 10:33N 39°06' W 076°24'10 9.6
2016-Jun-16 09:34N 38°57' W 076°24'1313.2
2016-Jun-16 08:33N 38°44' W 076°26'4213.5
2016-Jun-16 05:28N 38°03' W 076°13'6312.7
2016-Jun-16 00:31N 37°01' W 076°03'1111.7
2016-Jun-15 23:33N 36°53' W 075°52'11413.5
2016-Jun-15 15:05N 37°50' W 073°47'1114.2
2016-Jun-15 14:18N 37°56' W 073°36'3014.2
2016-Jun-15 12:13N 38°12' W 073°04'710.0
2016-Jun-15 11:33N 38°15' W 072°56'1414.2
2016-Jun-15 10:33N 38°23' W 072°41'8514.1
2016-Jun-15 04:33N 39°09' W 071°10'  
Track history (hours):
 
Tides and Currents Weather Stations Pressure Air Temp Water Temp Dewpoint Dewpoint Depression Visibility Wind Speed Wind Dir Waves Ship Positions

Valle Azzurra

Last reported at 2016-Jun-23 10:19 UTC. Time now 2016-Jun-25 03:37 UTC.
Position N 25°46' W 079°33'.

Length 183 m; draft 8.2 m.

Type: Ship. MMSI: 247226600.

Date/timePositionNaut miles runAvg speedWind from/ knotsBaromVisibWave heightAir tempDewpointWater temp
2016-Jun-23 10:19N 25°46' W 079°33'810.4
2016-Jun-23 09:33N 25°54' W 079°32'1110.5
2016-Jun-23 08:33N 26°04' W 079°31'1110.8
2016-Jun-23 07:34N 26°15' W 079°29'  
2016-Jun-20 19:32N 36°49' W 075°48'1313.3
2016-Jun-20 18:33N 36°58' W 076°00'1313.0
2016-Jun-20 17:34N 37°09' W 076°09'4312.9
2016-Jun-20 14:12N 37°52' W 076°10'914.5
2016-Jun-20 13:33N 38°01' W 076°12'1514.9
2016-Jun-20 12:34N 38°16' W 076°17'1515.0
2016-Jun-20 11:34N 38°30' W 076°24'1414.0
2016-Jun-20 10:34N 38°44' W 076°26'1413.5
2016-Jun-20 09:33N 38°57' W 076°23'1212.3
2016-Jun-20 08:33N 39°09' W 076°25'8 7.5
2016-Jun-20 07:33N 39°14' W 076°32'0 0.0
2016-Jun-20 06:33N 39°14' W 076°32'0 0.0
2016-Jun-20 05:33N 39°14' W 076°32'0 0.0
2016-Jun-20 04:27N 39°14' W 076°32'0 0.0
2016-Jun-20 03:33N 39°14' W 076°32'1 0.7
2016-Jun-20 02:33N 39°13' W 076°32'2 0.1
2016-Jun-19 06:21N 39°13' W 076°35'0 0.0
2016-Jun-18 11:18N 39°13' W 076°35'0 0.0
2016-Jun-18 10:06N 39°13' W 076°35'0 0.0
2016-Jun-18 09:33N 39°13' W 076°35'0 0.0
2016-Jun-18 07:33N 39°13' W 076°35'0 0.0
2016-Jun-18 06:24N 39°13' W 076°35'0 0.0
2016-Jun-16 15:33N 39°13' W 076°35'0 0.0
2016-Jun-16 14:33N 39°13' W 076°35'0 0.0
2016-Jun-16 13:33N 39°13' W 076°35'0 0.0
2016-Jun-16 12:33N 39°13' W 076°35'3 2.8
2016-Jun-16 11:33N 39°13' W 076°31'9 8.7
2016-Jun-16 10:33N 39°06' W 076°24'10 9.6
2016-Jun-16 09:34N 38°57' W 076°24'1313.2
2016-Jun-16 08:33N 38°44' W 076°26'4213.5
2016-Jun-16 05:28N 38°03' W 076°13'6312.7
2016-Jun-16 00:31N 37°01' W 076°03'1111.7
2016-Jun-15 23:33N 36°53' W 075°52'11413.5
2016-Jun-15 15:05N 37°50' W 073°47'1114.2
2016-Jun-15 14:18N 37°56' W 073°36'3014.2
2016-Jun-15 12:13N 38°12' W 073°04'710.0
2016-Jun-15 11:33N 38°15' W 072°56'1414.2
2016-Jun-15 10:33N 38°23' W 072°41'8514.1
2016-Jun-15 04:33N 39°09' W 071°10'  

Dump ship's entire track history